createdAt,value
2024-04-14T00:00:51.018Z,11.23
2024-04-14T00:01:57.855Z,10.02
2024-04-14T00:03:04.575Z,13.33
2024-04-14T00:04:11.412Z,11.82
2024-04-14T00:05:18.257Z,11.12
2024-04-14T00:06:25.147Z,10.85
2024-04-14T00:07:31.866Z,11.89
2024-04-14T00:08:38.574Z,10.74
2024-04-14T00:09:45.332Z,12.72
2024-04-14T00:10:52.066Z,13.04
2024-04-14T00:11:58.754Z,9.53
2024-04-14T00:13:05.540Z,11.44
2024-04-14T00:14:12.337Z,11.59
2024-04-14T00:15:19.075Z,11.11
2024-04-14T00:16:25.789Z,9.79
2024-04-14T00:17:32.557Z,11.03
2024-04-14T00:18:39.790Z,10.83
2024-04-14T00:19:47.068Z,11.59
2024-04-14T00:20:54.288Z,12.51
2024-04-14T00:22:01.092Z,12.40
2024-04-14T00:23:07.813Z,10.57
2024-04-14T00:24:14.523Z,9.33
2024-04-14T00:25:21.247Z,10.62
2024-04-14T00:26:28.018Z,10.43
2024-04-14T00:27:34.765Z,12.55
2024-04-14T00:28:41.463Z,10.13
2024-04-14T00:29:48.201Z,9.80
2024-04-14T00:30:55.108Z,9.96
2024-04-14T00:32:02.071Z,9.74
2024-04-14T00:33:08.835Z,9.22
2024-04-14T00:34:15.642Z,9.04
2024-04-14T00:35:22.325Z,9.06
2024-04-14T00:36:29.110Z,8.63
2024-04-14T00:37:35.820Z,9.05
2024-04-14T00:38:42.534Z,9.78
2024-04-14T00:39:49.324Z,8.92
2024-04-14T00:40:56.036Z,9.52
2024-04-14T00:42:02.796Z,9.90
2024-04-14T00:43:09.542Z,9.81
2024-04-14T00:44:16.263Z,8.52
2024-04-14T00:45:23.025Z,9.33
2024-04-14T00:46:29.751Z,10.36
2024-04-14T00:47:36.595Z,10.70
2024-04-14T00:48:43.419Z,9.51
2024-04-14T00:49:50.162Z,9.10
2024-04-14T00:50:56.898Z,10.27
2024-04-14T00:52:03.727Z,9.29
2024-04-14T00:53:10.492Z,9.87
2024-04-14T00:54:17.214Z,10.56
2024-04-14T00:55:23.937Z,10.57
2024-04-14T00:56:30.674Z,11.35
2024-04-14T00:57:37.489Z,10.01
2024-04-14T00:58:44.252Z,10.97
2024-04-14T00:59:50.972Z,10.91
2024-04-14T01:00:57.784Z,10.80
2024-04-14T01:02:07.468Z,10.47
2024-04-14T01:03:14.427Z,9.80
2024-04-14T01:04:21.214Z,11.16
2024-04-14T01:05:27.939Z,9.56
2024-04-14T01:06:34.700Z,9.74
2024-04-14T01:07:41.413Z,9.99
2024-04-14T01:08:48.140Z,9.86
2024-04-14T01:09:54.962Z,10.17
2024-04-14T01:11:01.729Z,8.63
2024-04-14T01:12:08.442Z,9.36
2024-04-14T01:13:15.145Z,8.80
2024-04-14T01:14:21.893Z,9.75
2024-04-14T01:15:28.601Z,10.98
2024-04-14T01:16:35.316Z,8.59
2024-04-14T01:17:42.167Z,8.67
2024-04-14T01:18:49.004Z,9.07
2024-04-14T01:19:55.686Z,10.08
2024-04-14T01:21:02.413Z,8.75
2024-04-14T01:22:09.202Z,9.42
2024-04-14T01:23:15.932Z,8.26
2024-04-14T01:24:22.670Z,9.12
2024-04-14T01:25:29.396Z,10.77
2024-04-14T01:26:36.114Z,8.76
2024-04-14T01:27:42.895Z,9.79
2024-04-14T01:28:49.615Z,10.45
2024-04-14T01:29:56.326Z,11.38
2024-04-14T01:31:03.168Z,10.30
2024-04-14T01:32:10.047Z,10.41
2024-04-14T01:33:16.783Z,11.69
2024-04-14T01:34:23.494Z,9.25
2024-04-14T01:35:30.223Z,10.85
2024-04-14T01:36:36.969Z,9.95
2024-04-14T01:37:43.745Z,9.64
2024-04-14T01:38:50.453Z,9.19
2024-04-14T01:39:57.317Z,8.89
2024-04-14T01:41:04.089Z,9.57
2024-04-14T01:42:10.816Z,9.66
2024-04-14T01:43:17.564Z,10.84
2024-04-14T01:44:24.307Z,8.78
2024-04-14T01:45:31.110Z,8.73
2024-04-14T01:46:37.840Z,8.51
2024-04-14T01:47:44.673Z,9.07
2024-04-14T01:48:51.618Z,9.21
2024-04-14T01:49:58.342Z,9.07
2024-04-14T01:51:05.079Z,10.52
2024-04-14T01:52:11.795Z,8.61
2024-04-14T01:53:18.517Z,9.45
2024-04-14T01:54:25.269Z,9.25
2024-04-14T01:55:31.990Z,8.04
2024-04-14T01:56:38.745Z,9.76
2024-04-14T01:57:45.513Z,9.91
2024-04-14T01:58:52.227Z,9.32
2024-04-14T01:59:58.965Z,9.01
2024-04-14T02:01:05.756Z,9.68
2024-04-14T02:02:12.513Z,8.97
2024-04-14T02:03:19.381Z,8.93
2024-04-14T02:04:26.266Z,9.51
2024-04-14T02:05:32.977Z,9.32
2024-04-14T02:06:39.721Z,8.63
2024-04-14T02:07:46.436Z,10.54
2024-04-14T02:08:53.160Z,9.05
2024-04-14T02:09:59.924Z,8.83
2024-04-14T02:11:06.684Z,8.84
2024-04-14T02:12:13.389Z,8.76
2024-04-14T02:13:20.124Z,9.48
2024-04-14T02:14:26.857Z,9.01
2024-04-14T02:15:33.575Z,9.22
2024-04-14T02:16:40.297Z,8.48
2024-04-14T02:17:47.082Z,9.69
2024-04-14T02:18:53.879Z,9.91
2024-04-14T02:20:00.603Z,10.27
2024-04-14T02:21:07.322Z,9.30
2024-04-14T02:22:14.046Z,10.61
2024-04-14T02:23:20.801Z,10.25
2024-04-14T02:24:27.569Z,9.16
2024-04-14T02:25:34.228Z,8.97
2024-04-14T02:26:40.990Z,9.86
2024-04-14T02:27:47.715Z,9.54
2024-04-14T02:28:54.442Z,10.49
2024-04-14T02:30:01.197Z,10.94
2024-04-14T02:31:07.928Z,9.40
2024-04-14T02:32:14.713Z,8.90
2024-04-14T02:33:21.442Z,9.40
2024-04-14T02:34:28.159Z,9.44
2024-04-14T02:35:34.892Z,10.88
2024-04-14T02:36:41.633Z,9.40
2024-04-14T02:37:48.430Z,9.19
2024-04-14T02:38:55.163Z,8.94
2024-04-14T02:40:01.930Z,8.43
2024-04-14T02:41:08.652Z,8.44
2024-04-14T02:42:15.381Z,9.46
2024-04-14T02:43:22.138Z,8.77
2024-04-14T02:44:28.863Z,9.05
2024-04-14T02:45:35.632Z,9.03
2024-04-14T02:46:42.342Z,9.48
2024-04-14T02:47:49.108Z,10.42
2024-04-14T02:48:55.934Z,8.98
2024-04-14T02:50:02.746Z,8.98
2024-04-14T02:51:09.484Z,10.85
2024-04-14T02:52:16.229Z,9.85
2024-04-14T02:53:22.976Z,9.10
2024-04-14T02:54:29.719Z,10.77
2024-04-14T02:55:36.428Z,9.52
2024-04-14T02:56:43.223Z,10.07
2024-04-14T02:57:49.932Z,10.43
2024-04-14T02:58:56.659Z,9.15
2024-04-14T03:00:03.369Z,9.68
2024-04-14T03:01:10.215Z,10.83
2024-04-14T03:02:17.043Z,8.89
2024-04-14T03:03:23.813Z,8.24
2024-04-14T03:04:30.617Z,8.91
2024-04-14T03:05:37.403Z,9.55
2024-04-14T03:06:44.194Z,8.80
2024-04-14T03:07:50.987Z,8.79
2024-04-14T03:08:57.749Z,8.71
2024-04-14T03:10:04.493Z,8.39
2024-04-14T03:11:11.233Z,8.20
2024-04-14T03:12:17.916Z,7.24
2024-04-14T03:13:24.678Z,9.26
2024-04-14T03:14:31.412Z,8.36
2024-04-14T03:15:38.167Z,7.95
2024-04-14T03:16:44.984Z,9.85
2024-04-14T03:17:51.802Z,9.97
2024-04-14T03:18:58.708Z,7.66
2024-04-14T03:20:05.547Z,8.15
2024-04-14T03:21:12.264Z,9.75
2024-04-14T03:22:18.974Z,8.97
2024-04-14T03:23:25.754Z,8.50
2024-04-14T03:24:32.518Z,8.91
2024-04-14T03:25:39.258Z,8.17
2024-04-14T03:26:45.989Z,7.89
2024-04-14T03:27:52.732Z,8.57
2024-04-14T03:28:59.425Z,8.11
2024-04-14T03:30:06.161Z,8.46
2024-04-14T03:31:13.037Z,9.05
2024-04-14T03:32:19.783Z,8.99
2024-04-14T03:33:26.518Z,8.70
2024-04-14T03:34:33.242Z,7.42
2024-04-14T03:35:39.957Z,6.69
2024-04-14T03:36:46.723Z,8.29
2024-04-14T03:37:53.425Z,6.63
2024-04-14T03:39:00.172Z,7.04
2024-04-14T03:40:06.923Z,7.13
2024-04-14T03:41:13.617Z,7.61
2024-04-14T03:42:20.317Z,7.17
2024-04-14T03:43:27.060Z,7.97
2024-04-14T03:44:33.809Z,7.12
2024-04-14T03:45:40.595Z,7.47
2024-04-14T03:46:47.440Z,7.32
2024-04-14T03:47:54.238Z,10.54
2024-04-14T03:49:01.002Z,7.21
2024-04-14T03:50:07.732Z,7.06
2024-04-14T03:51:14.448Z,7.54
2024-04-14T03:52:21.177Z,7.63
2024-04-14T03:53:27.887Z,6.48
2024-04-14T03:54:34.659Z,7.17
2024-04-14T03:55:41.347Z,6.12
2024-04-14T03:56:48.070Z,6.48
2024-04-14T03:57:54.946Z,6.03
2024-04-14T03:59:01.703Z,6.14
2024-04-14T04:00:08.448Z,6.80
2024-04-14T04:01:15.248Z,6.90
2024-04-14T04:02:22.091Z,6.68
2024-04-14T04:03:28.841Z,7.80
2024-04-14T04:04:35.631Z,6.60
2024-04-14T04:05:42.332Z,6.97
2024-04-14T04:06:49.085Z,6.67
2024-04-14T04:07:55.794Z,8.60
2024-04-14T04:09:02.537Z,7.18
2024-04-14T04:10:09.251Z,6.37
2024-04-14T04:11:15.983Z,6.42
2024-04-14T04:12:22.693Z,6.06
2024-04-14T04:13:29.419Z,6.82
2024-04-14T04:14:36.187Z,7.50
2024-04-14T04:15:42.939Z,8.65
2024-04-14T04:16:49.699Z,8.02
2024-04-14T04:17:56.545Z,7.01
2024-04-14T04:19:11.280Z,7.09
2024-04-14T04:20:14.919Z,8.14
2024-04-14T04:21:21.637Z,7.36
2024-04-14T04:22:28.343Z,7.73
2024-04-14T04:23:35.075Z,8.12
2024-04-14T04:24:41.851Z,7.64
2024-04-14T04:25:48.562Z,8.66
2024-04-14T04:26:55.339Z,8.22
2024-04-14T04:28:02.051Z,8.20
2024-04-14T04:29:08.810Z,8.12
2024-04-14T04:30:15.532Z,7.37
2024-04-14T04:31:22.240Z,7.80
2024-04-14T04:32:29.066Z,8.30
2024-04-14T04:33:35.958Z,8.48
2024-04-14T04:34:42.746Z,7.51
2024-04-14T04:35:49.475Z,8.45
2024-04-14T04:36:56.310Z,8.24
2024-04-14T04:38:03.061Z,9.53
2024-04-14T04:39:09.863Z,8.79
2024-04-14T04:40:16.565Z,8.99
2024-04-14T04:41:23.282Z,9.62
2024-04-14T04:42:30.025Z,6.79
2024-04-14T04:43:36.737Z,7.01
2024-04-14T04:44:43.469Z,8.21
2024-04-14T04:45:50.223Z,8.02
2024-04-14T04:46:56.912Z,8.43
2024-04-14T04:48:03.721Z,7.24
2024-04-14T04:49:10.588Z,7.79
2024-04-14T04:50:17.371Z,7.66
2024-04-14T04:51:24.130Z,7.95
2024-04-14T04:52:30.866Z,7.74
2024-04-14T04:53:37.576Z,7.06
2024-04-14T04:54:44.349Z,7.47
2024-04-14T04:55:51.019Z,9.00
2024-04-14T04:56:57.750Z,7.32
2024-04-14T04:58:04.562Z,6.38
2024-04-14T04:59:11.290Z,7.12
2024-04-14T05:00:18.028Z,6.86
2024-04-14T05:01:24.886Z,8.97
2024-04-14T05:02:31.684Z,7.21
2024-04-14T05:03:38.666Z,7.29
2024-04-14T05:04:45.576Z,6.66
2024-04-14T05:05:52.267Z,7.13
2024-04-14T05:06:59.101Z,8.30
2024-04-14T05:08:05.848Z,7.82
2024-04-14T05:09:12.575Z,7.44
2024-04-14T05:10:19.297Z,8.46
2024-04-14T05:11:26.112Z,9.15
2024-04-14T05:12:32.916Z,7.68
2024-04-14T05:13:39.799Z,8.61
2024-04-14T05:14:46.533Z,9.26
2024-04-14T05:15:53.308Z,9.00
2024-04-14T05:17:00.020Z,9.24
2024-04-14T05:18:06.871Z,8.46
2024-04-14T05:19:13.681Z,9.81
2024-04-14T05:20:20.410Z,10.06
2024-04-14T05:21:27.187Z,8.16
2024-04-14T05:22:33.931Z,17.20
2024-04-14T05:23:40.687Z,15.09
2024-04-14T05:24:47.400Z,12.96
2024-04-14T05:25:54.112Z,9.27
2024-04-14T05:27:00.834Z,6.61
2024-04-14T05:28:07.576Z,6.38
2024-04-14T05:29:14.305Z,8.05
2024-04-14T05:30:21.036Z,7.19
2024-04-14T05:31:27.735Z,6.70
2024-04-14T05:32:35.900Z,6.41
2024-04-14T05:33:44.664Z,6.43
2024-04-14T05:34:51.384Z,7.57
2024-04-14T05:35:58.174Z,7.90
2024-04-14T05:37:04.918Z,9.60
2024-04-14T05:38:11.612Z,7.41
2024-04-14T05:39:18.351Z,7.30
2024-04-14T05:40:25.068Z,7.88
2024-04-14T05:41:31.793Z,8.12
2024-04-14T05:42:38.608Z,8.35
2024-04-14T05:43:45.351Z,7.17
2024-04-14T05:44:52.086Z,7.78
2024-04-14T05:45:58.883Z,8.55
2024-04-14T05:47:05.773Z,7.82
2024-04-14T05:48:12.570Z,7.60
2024-04-14T05:49:20.040Z,8.22
2024-04-14T05:50:26.875Z,8.87
2024-04-14T05:51:33.641Z,7.94
2024-04-14T05:52:40.330Z,7.37
2024-04-14T05:53:47.037Z,8.22
2024-04-14T05:54:53.840Z,7.99
2024-04-14T05:56:00.580Z,6.62
2024-04-14T05:57:07.274Z,8.58
2024-04-14T05:58:13.998Z,8.56
2024-04-14T05:59:20.756Z,7.25
2024-04-14T06:00:27.554Z,7.59
2024-04-14T06:01:34.456Z,8.03
2024-04-14T06:02:41.297Z,8.21
2024-04-14T06:03:48.079Z,8.06
2024-04-14T06:04:54.906Z,8.10
2024-04-14T06:06:01.608Z,8.57
2024-04-14T06:07:08.375Z,8.21
2024-04-14T06:08:15.066Z,9.01
2024-04-14T06:09:21.776Z,9.47
2024-04-14T06:10:28.547Z,8.60
2024-04-14T06:11:35.252Z,8.81
2024-04-14T06:12:41.987Z,9.08
2024-04-14T06:13:48.691Z,8.96
2024-04-14T06:14:55.405Z,10.67
2024-04-14T06:16:02.249Z,9.33
2024-04-14T06:17:09.072Z,7.54
2024-04-14T06:18:15.763Z,8.66
2024-04-14T06:19:22.465Z,8.22
2024-04-14T06:20:29.218Z,7.85
2024-04-14T06:21:35.990Z,7.81
2024-04-14T06:22:42.694Z,8.29
2024-04-14T06:23:49.408Z,7.09
2024-04-14T06:24:56.222Z,6.16
2024-04-14T06:26:03.003Z,4.95
2024-04-14T06:27:09.763Z,5.77
2024-04-14T06:28:16.531Z,5.85
2024-04-14T06:29:23.255Z,5.49
2024-04-14T06:30:30.062Z,5.34
2024-04-14T06:31:36.751Z,5.49
2024-04-14T06:32:43.567Z,5.77
2024-04-14T06:33:50.432Z,5.04
2024-04-14T06:34:57.259Z,6.50
2024-04-14T06:36:04.026Z,7.45
2024-04-14T06:37:10.744Z,7.82
2024-04-14T06:38:17.472Z,5.93
2024-04-14T06:39:24.209Z,5.19
2024-04-14T06:40:30.935Z,5.05
2024-04-14T06:41:37.672Z,6.48
2024-04-14T06:42:44.447Z,6.89
2024-04-14T06:43:51.134Z,5.46
2024-04-14T06:44:57.887Z,5.26
2024-04-14T06:46:04.693Z,6.12
2024-04-14T06:47:11.414Z,4.84
2024-04-14T06:48:18.163Z,5.12
2024-04-14T06:49:24.861Z,3.68
2024-04-14T06:50:31.597Z,4.98
2024-04-14T06:51:38.379Z,6.72
2024-04-14T06:52:45.162Z,5.29
2024-04-14T06:53:51.877Z,4.44
2024-04-14T06:54:58.668Z,5.57
2024-04-14T06:56:05.477Z,4.50
2024-04-14T06:57:12.223Z,4.98
2024-04-14T06:58:18.932Z,4.10
2024-04-14T06:59:25.637Z,4.72
2024-04-14T07:00:32.468Z,3.99
2024-04-14T07:01:39.413Z,5.25
2024-04-14T07:02:46.166Z,3.49
2024-04-14T07:03:52.925Z,4.60
2024-04-14T07:04:59.705Z,5.60
2024-04-14T07:06:06.467Z,4.97
2024-04-14T07:07:13.198Z,4.72
2024-04-14T07:08:19.933Z,4.38
2024-04-14T07:09:26.676Z,4.48
2024-04-14T07:10:33.416Z,4.97
2024-04-14T07:11:40.234Z,3.74
2024-04-14T07:12:47.104Z,4.53
2024-04-14T07:13:53.890Z,4.68
2024-04-14T07:15:00.612Z,3.58
2024-04-14T07:16:07.421Z,4.77
2024-04-14T07:17:14.269Z,4.72
2024-04-14T07:18:21.051Z,2.73
2024-04-14T07:19:27.890Z,3.78
2024-04-14T07:20:34.632Z,3.28
2024-04-14T07:21:41.430Z,4.17
2024-04-14T07:22:48.163Z,4.17
2024-04-14T07:23:54.862Z,5.44
2024-04-14T07:25:01.846Z,4.65
2024-04-14T07:26:08.690Z,4.12
2024-04-14T07:27:15.452Z,3.77
2024-04-14T07:28:22.277Z,4.83
2024-04-14T07:29:28.993Z,5.65
2024-04-14T07:30:35.744Z,4.54
2024-04-14T07:31:42.458Z,2.97
2024-04-14T07:32:49.283Z,4.66
2024-04-14T07:33:56.052Z,3.43
2024-04-14T07:35:02.784Z,3.25
2024-04-14T07:36:09.486Z,3.58
2024-04-14T07:37:16.250Z,4.98
2024-04-14T07:38:22.980Z,4.03
2024-04-14T07:39:29.721Z,3.27
2024-04-14T07:40:36.419Z,3.94
2024-04-14T07:41:43.141Z,3.18
2024-04-14T07:42:50.063Z,3.74
2024-04-14T07:43:56.933Z,2.72
2024-04-14T07:45:03.636Z,3.12
2024-04-14T07:46:10.407Z,4.06
2024-04-14T07:47:17.175Z,3.86
2024-04-14T07:48:24.004Z,3.51
2024-04-14T07:49:30.833Z,3.63
2024-04-14T07:50:37.599Z,3.35
2024-04-14T07:51:44.362Z,3.20
2024-04-14T07:52:51.123Z,3.73
2024-04-14T07:53:57.855Z,4.35
2024-04-14T07:55:04.653Z,3.36
2024-04-14T07:56:11.362Z,3.92
2024-04-14T07:57:18.092Z,4.05
2024-04-14T07:58:24.854Z,3.35
2024-04-14T07:59:31.588Z,5.10
2024-04-14T08:00:38.392Z,3.54
2024-04-14T08:01:45.179Z,3.55
2024-04-14T08:02:51.991Z,4.84
2024-04-14T08:03:58.837Z,4.46
2024-04-14T08:05:05.696Z,3.34
2024-04-14T08:06:12.418Z,4.08
2024-04-14T08:07:19.149Z,5.27
2024-04-14T08:08:25.917Z,3.97
2024-04-14T08:09:32.717Z,3.37
2024-04-14T08:10:39.466Z,3.83
2024-04-14T08:11:46.213Z,3.93
2024-04-14T08:12:52.984Z,4.25
2024-04-14T08:13:59.729Z,5.03
2024-04-14T08:15:06.438Z,6.12
2024-04-14T08:16:13.492Z,3.68
2024-04-14T08:17:20.352Z,3.99
2024-04-14T08:18:27.131Z,4.68
2024-04-14T08:19:33.871Z,3.03
2024-04-14T08:20:40.590Z,3.06
2024-04-14T08:21:47.352Z,3.85
2024-04-14T08:22:54.107Z,4.63
2024-04-14T08:24:00.870Z,4.44
2024-04-14T08:25:07.672Z,3.89
2024-04-14T08:26:14.423Z,3.94
2024-04-14T08:27:21.152Z,3.84
2024-04-14T08:28:27.926Z,3.27
2024-04-14T08:29:34.662Z,3.49
2024-04-14T08:30:41.440Z,3.74
2024-04-14T08:31:48.171Z,4.11
2024-04-14T08:32:54.939Z,3.46
2024-04-14T08:34:05.322Z,4.10
2024-04-14T08:35:13.305Z,4.21
2024-04-14T08:36:20.001Z,3.82
2024-04-14T08:37:26.769Z,5.15
2024-04-14T08:38:33.527Z,3.64
2024-04-14T08:39:40.295Z,4.69
2024-04-14T08:40:47.030Z,4.49
2024-04-14T08:41:53.770Z,5.07
2024-04-14T08:43:00.587Z,3.44
2024-04-14T08:44:07.421Z,4.17
2024-04-14T08:45:14.156Z,4.37
2024-04-14T08:46:20.983Z,3.91
2024-04-14T08:47:27.800Z,3.70
2024-04-14T08:48:34.587Z,4.00
2024-04-14T08:49:41.375Z,5.30
2024-04-14T08:50:48.122Z,4.45
2024-04-14T08:51:54.924Z,4.98
2024-04-14T08:53:01.610Z,4.87
2024-04-14T08:54:08.385Z,4.18
2024-04-14T08:55:15.111Z,3.43
2024-04-14T08:56:21.851Z,4.83
2024-04-14T08:57:28.612Z,4.57
2024-04-14T08:58:35.317Z,6.59
2024-04-14T08:59:42.073Z,5.46
2024-04-14T09:00:48.900Z,4.88
2024-04-14T09:01:55.774Z,4.81
2024-04-14T09:03:02.599Z,3.75
2024-04-14T09:04:09.422Z,4.16
2024-04-14T09:05:16.260Z,4.26
2024-04-14T09:06:23.019Z,3.77
2024-04-14T09:07:29.778Z,4.70
2024-04-14T09:08:36.514Z,4.24
2024-04-14T09:09:43.258Z,4.36
2024-04-14T09:10:50.009Z,5.62
2024-04-14T09:11:56.722Z,4.83
2024-04-14T09:13:05.011Z,3.78
2024-04-14T09:14:13.913Z,4.77
2024-04-14T09:15:20.701Z,4.05
2024-04-14T09:16:27.483Z,5.17
2024-04-14T09:17:34.345Z,3.75
2024-04-14T09:18:41.096Z,5.22
2024-04-14T09:19:47.887Z,4.62
2024-04-14T09:20:54.638Z,4.44
2024-04-14T09:22:01.424Z,3.82
2024-04-14T09:23:08.191Z,3.24
2024-04-14T09:24:14.914Z,3.96
2024-04-14T09:25:21.726Z,3.59
2024-04-14T09:26:28.481Z,5.04
2024-04-14T09:27:35.252Z,4.90
2024-04-14T09:28:41.967Z,4.83
2024-04-14T09:29:48.743Z,4.07
2024-04-14T09:30:55.487Z,3.84
2024-04-14T09:32:05.326Z,3.33
2024-04-14T09:33:12.565Z,4.11
2024-04-14T09:34:19.346Z,5.01
2024-04-14T09:35:26.049Z,4.67
2024-04-14T09:36:32.826Z,3.81
2024-04-14T09:37:39.616Z,6.78
2024-04-14T09:38:46.457Z,4.24
2024-04-14T09:39:53.290Z,4.52
2024-04-14T09:41:00.007Z,3.27
2024-04-14T09:42:06.729Z,4.15
2024-04-14T09:43:13.475Z,3.41
2024-04-14T09:44:23.278Z,3.54
2024-04-14T09:45:30.242Z,4.08
2024-04-14T09:46:36.929Z,3.75
2024-04-14T09:47:43.743Z,4.49
2024-04-14T09:48:50.508Z,4.33
2024-04-14T09:49:57.264Z,3.74
2024-04-14T09:51:03.989Z,5.25
2024-04-14T09:52:10.759Z,3.82
2024-04-14T09:53:17.449Z,4.52
2024-04-14T09:54:24.194Z,3.26
2024-04-14T09:55:30.956Z,4.22
2024-04-14T09:56:37.700Z,4.47
2024-04-14T09:57:44.485Z,5.19
2024-04-14T09:58:51.152Z,4.38
2024-04-14T09:59:57.893Z,3.08
2024-04-14T10:01:04.699Z,3.97
2024-04-14T10:02:11.472Z,3.35
2024-04-14T10:03:18.215Z,4.00
2024-04-14T10:04:25.047Z,4.20
2024-04-14T10:05:31.889Z,3.65
2024-04-14T10:06:38.714Z,3.98
2024-04-14T10:07:45.450Z,4.46
2024-04-14T10:08:52.186Z,5.22
2024-04-14T10:09:58.983Z,4.28
2024-04-14T10:11:05.833Z,4.50
2024-04-14T10:12:12.649Z,4.61
2024-04-14T10:13:19.386Z,3.59
2024-04-14T10:14:26.123Z,3.35
2024-04-14T10:15:32.902Z,3.12
2024-04-14T10:16:39.682Z,3.90
2024-04-14T10:17:46.420Z,3.69
2024-04-14T10:18:53.288Z,3.86
2024-04-14T10:20:00.135Z,4.18
2024-04-14T10:21:06.866Z,4.34
2024-04-14T10:22:13.583Z,4.09
2024-04-14T10:23:20.323Z,4.29
2024-04-14T10:24:27.066Z,4.75
2024-04-14T10:25:33.853Z,5.05
2024-04-14T10:26:40.562Z,4.20
2024-04-14T10:27:47.322Z,3.14
2024-04-14T10:28:54.061Z,3.39
2024-04-14T10:30:00.790Z,3.31
2024-04-14T10:31:07.610Z,4.45
2024-04-14T10:32:14.333Z,3.40
2024-04-14T10:33:21.149Z,5.09
2024-04-14T10:34:27.945Z,4.20
2024-04-14T10:35:34.790Z,3.29
2024-04-14T10:36:42.017Z,5.37
2024-04-14T10:37:48.904Z,3.75
2024-04-14T10:38:55.628Z,4.72
2024-04-14T10:40:02.454Z,5.26
2024-04-14T10:41:09.234Z,3.65
2024-04-14T10:42:15.948Z,4.63
2024-04-14T10:43:22.679Z,3.55
2024-04-14T10:44:29.400Z,3.39
2024-04-14T10:45:36.192Z,3.76
2024-04-14T10:46:42.951Z,3.36
2024-04-14T10:47:49.687Z,3.82
2024-04-14T10:48:56.951Z,3.63
2024-04-14T10:50:03.768Z,4.01
2024-04-14T10:51:10.505Z,4.72
2024-04-14T10:52:17.235Z,3.89
2024-04-14T10:53:23.967Z,3.65
2024-04-14T10:54:30.815Z,3.66
2024-04-14T10:55:37.638Z,3.17
2024-04-14T10:56:47.424Z,3.94
2024-04-14T10:57:55.450Z,5.77
2024-04-14T10:59:02.179Z,3.89
2024-04-14T11:00:08.912Z,3.90
2024-04-14T11:01:15.735Z,3.93
2024-04-14T11:02:22.522Z,4.65
2024-04-14T11:03:29.408Z,4.09
2024-04-14T11:04:36.326Z,2.68
2024-04-14T11:05:43.132Z,3.87
2024-04-14T11:06:49.911Z,4.53
2024-04-14T11:07:56.605Z,4.11
2024-04-14T11:09:03.338Z,3.21
2024-04-14T11:10:10.130Z,3.50
2024-04-14T11:11:16.861Z,3.94
2024-04-14T11:12:23.624Z,2.73
2024-04-14T11:13:30.326Z,3.25
2024-04-14T11:14:37.046Z,4.20
2024-04-14T11:15:43.937Z,3.86
2024-04-14T11:16:50.869Z,3.58
2024-04-14T11:17:57.680Z,3.14
2024-04-14T11:19:04.508Z,3.30
2024-04-14T11:20:11.329Z,5.16
2024-04-14T11:21:18.071Z,4.67
2024-04-14T11:22:24.789Z,3.25
2024-04-14T11:23:31.536Z,3.33
2024-04-14T11:24:38.269Z,3.39
2024-04-14T11:25:45.043Z,2.91
2024-04-14T11:26:51.778Z,3.98
2024-04-14T11:27:58.554Z,3.60
2024-04-14T11:29:05.227Z,3.77
2024-04-14T11:30:11.962Z,4.06
2024-04-14T11:31:18.757Z,3.78
2024-04-14T11:32:25.554Z,3.81
2024-04-14T11:33:32.427Z,3.74
2024-04-14T11:34:39.275Z,5.39
2024-04-14T11:35:46.038Z,3.73
2024-04-14T11:36:52.776Z,5.17
2024-04-14T11:37:59.508Z,4.98
2024-04-14T11:39:06.262Z,3.80
2024-04-14T11:40:13.047Z,3.14
2024-04-14T11:41:19.850Z,3.51
2024-04-14T11:42:26.577Z,4.65
2024-04-14T11:43:33.321Z,5.35
2024-04-14T11:44:40.080Z,3.86
2024-04-14T11:45:46.871Z,2.80
2024-04-14T11:46:53.644Z,3.03
2024-04-14T11:48:00.383Z,5.14
2024-04-14T11:49:07.187Z,3.68
2024-04-14T11:50:13.905Z,3.80
2024-04-14T11:51:20.649Z,3.74
2024-04-14T11:52:27.370Z,4.14
2024-04-14T11:53:34.110Z,4.21
2024-04-14T11:54:40.854Z,3.42
2024-04-14T11:55:47.633Z,4.70
2024-04-14T11:56:54.405Z,3.49
2024-04-14T11:58:01.222Z,4.20
2024-04-14T11:59:07.962Z,3.55
2024-04-14T12:00:14.702Z,4.08
2024-04-14T12:01:21.541Z,4.51
2024-04-14T12:02:28.296Z,5.12
2024-04-14T12:03:35.046Z,3.27
2024-04-14T12:04:41.787Z,3.52
2024-04-14T12:05:48.526Z,3.00
2024-04-14T12:06:55.274Z,3.29
2024-04-14T12:08:02.030Z,5.53
2024-04-14T12:09:08.771Z,3.66
2024-04-14T12:10:15.573Z,4.52
2024-04-14T12:11:22.392Z,3.44
2024-04-14T12:12:29.210Z,4.40
2024-04-14T12:13:35.947Z,3.65
2024-04-14T12:14:42.680Z,3.36
2024-04-14T12:15:49.437Z,3.38
2024-04-14T12:16:56.264Z,3.70
2024-04-14T12:18:03.096Z,3.02
2024-04-14T12:19:09.922Z,3.22
2024-04-14T12:20:16.662Z,2.99
2024-04-14T12:21:23.375Z,3.73
2024-04-14T12:22:30.142Z,3.37
2024-04-14T12:23:36.893Z,3.74
2024-04-14T12:24:43.662Z,3.27
2024-04-14T12:25:50.430Z,3.38
2024-04-14T12:26:57.178Z,4.08
2024-04-14T12:28:04.094Z,3.97
2024-04-14T12:29:10.903Z,2.80
2024-04-14T12:30:17.717Z,4.23
2024-04-14T12:31:24.550Z,4.13
2024-04-14T12:32:31.402Z,4.05
2024-04-14T12:33:38.199Z,3.74
2024-04-14T12:34:45.038Z,3.73
2024-04-14T12:35:51.823Z,5.19
2024-04-14T12:36:58.640Z,4.82
2024-04-14T12:38:05.396Z,3.70
2024-04-14T12:39:17.181Z,3.23
2024-04-14T12:40:23.810Z,3.61
2024-04-14T12:41:30.550Z,3.10
2024-04-14T12:42:37.395Z,3.89
2024-04-14T12:43:44.140Z,3.55
2024-04-14T12:44:50.896Z,3.53
2024-04-14T12:45:57.686Z,3.30
2024-04-14T12:47:04.506Z,5.66
2024-04-14T12:48:11.499Z,4.01
2024-04-14T12:49:18.272Z,3.83
2024-04-14T12:50:32.614Z,4.40
2024-04-14T12:51:36.668Z,3.80
2024-04-14T12:52:43.407Z,5.36
2024-04-14T12:53:50.169Z,3.71
2024-04-14T12:54:56.971Z,3.83
2024-04-14T12:56:03.708Z,5.20
2024-04-14T12:57:10.466Z,4.01
2024-04-14T12:58:17.226Z,4.39
2024-04-14T12:59:23.971Z,4.04
2024-04-14T13:00:30.729Z,3.10
2024-04-14T13:01:37.528Z,3.24
2024-04-14T13:02:44.322Z,2.88
2024-04-14T13:03:51.164Z,3.27
2024-04-14T13:04:57.997Z,3.53
2024-04-14T13:06:04.758Z,3.11
2024-04-14T13:07:11.656Z,3.85
2024-04-14T13:08:18.525Z,3.43
2024-04-14T13:09:25.245Z,4.44
2024-04-14T13:10:31.997Z,4.17
2024-04-14T13:11:38.727Z,3.56
2024-04-14T13:12:45.550Z,3.98
2024-04-14T13:13:52.265Z,4.28
2024-04-14T13:14:58.996Z,3.44
2024-04-14T13:16:05.849Z,3.48
2024-04-14T13:17:12.619Z,4.14
2024-04-14T13:18:19.399Z,3.99
2024-04-14T13:19:26.121Z,4.17
2024-04-14T13:20:32.877Z,2.80
2024-04-14T13:21:39.667Z,3.02
2024-04-14T13:22:46.383Z,3.76
2024-04-14T13:23:53.100Z,4.41
2024-04-14T13:24:59.843Z,4.14
2024-04-14T13:26:06.582Z,3.03
2024-04-14T13:27:13.344Z,4.17
2024-04-14T13:28:20.091Z,5.75
2024-04-14T13:29:28.614Z,3.74
2024-04-14T13:30:37.179Z,5.81
2024-04-14T13:31:43.918Z,4.48
2024-04-14T13:32:50.765Z,3.95
2024-04-14T13:33:57.663Z,4.06
2024-04-14T13:35:04.459Z,4.19
2024-04-14T13:36:11.173Z,3.24
2024-04-14T13:37:17.936Z,3.54
2024-04-14T13:38:24.686Z,4.48
2024-04-14T13:39:31.517Z,3.22
2024-04-14T13:40:38.299Z,4.21
2024-04-14T13:41:45.030Z,3.73
2024-04-14T13:42:51.818Z,4.48
2024-04-14T13:43:58.512Z,3.85
2024-04-14T13:45:05.256Z,4.28
2024-04-14T13:46:12.017Z,3.47
2024-04-14T13:47:18.765Z,3.19
2024-04-14T13:48:25.513Z,3.26
2024-04-14T13:49:35.634Z,3.79
2024-04-14T13:50:42.917Z,3.95
2024-04-14T13:51:49.647Z,4.15
2024-04-14T13:52:56.393Z,4.03
2024-04-14T13:54:03.135Z,4.47
2024-04-14T13:55:10.095Z,3.47
2024-04-14T13:56:16.930Z,3.44
2024-04-14T13:57:23.711Z,4.18
2024-04-14T13:58:30.439Z,3.45
2024-04-14T13:59:37.194Z,3.49
2024-04-14T14:00:43.949Z,4.41
2024-04-14T14:01:50.723Z,4.96
2024-04-14T14:02:57.507Z,4.57
2024-04-14T14:04:04.407Z,4.25
2024-04-14T14:05:11.231Z,4.22
2024-04-14T14:06:17.923Z,4.99
2024-04-14T14:07:24.714Z,3.89
2024-04-14T14:08:31.442Z,4.50
2024-04-14T14:09:38.205Z,3.29
2024-04-14T14:10:44.914Z,3.37
2024-04-14T14:11:51.644Z,4.74
2024-04-14T14:12:58.553Z,3.18
2024-04-14T14:14:05.299Z,3.34
2024-04-14T14:15:12.030Z,3.72
2024-04-14T14:16:18.960Z,3.34
2024-04-14T14:17:25.741Z,4.44
2024-04-14T14:18:32.512Z,4.47
2024-04-14T14:19:39.222Z,3.56
2024-04-14T14:20:45.943Z,3.46
2024-04-14T14:21:52.730Z,3.38
2024-04-14T14:22:59.458Z,3.19
2024-04-14T14:24:06.200Z,4.01
2024-04-14T14:25:12.987Z,4.02
2024-04-14T14:26:19.723Z,3.85
2024-04-14T14:27:26.482Z,3.58
2024-04-14T14:28:33.245Z,4.06
2024-04-14T14:29:39.987Z,4.76
2024-04-14T14:30:46.707Z,4.47
2024-04-14T14:31:53.406Z,3.27
2024-04-14T14:33:00.242Z,3.87
2024-04-14T14:34:07.109Z,3.73
2024-04-14T14:35:13.830Z,4.29
2024-04-14T14:36:20.586Z,4.57
2024-04-14T14:37:27.313Z,4.42
2024-04-14T14:38:39.364Z,3.32
2024-04-14T14:39:45.781Z,3.74
2024-04-14T14:40:52.611Z,3.97
2024-04-14T14:41:59.333Z,3.28
2024-04-14T14:43:06.147Z,3.18
2024-04-14T14:44:12.847Z,4.84
2024-04-14T14:45:19.566Z,3.61
2024-04-14T14:46:26.342Z,4.23
2024-04-14T14:47:33.085Z,3.65